createdAt,value
2022-12-25T00:01:20.666Z,45.07
2022-12-25T00:03:48.735Z,37.17
2022-12-25T00:06:17.090Z,31.47
2022-12-25T00:08:44.351Z,40.90
2022-12-25T00:11:18.417Z,42.73
2022-12-25T00:13:48.641Z,50.13
2022-12-25T00:16:25.154Z,28.93
2022-12-25T00:18:56.933Z,47.47
2022-12-25T00:21:26.369Z,45.37
2022-12-25T00:23:58.323Z,40.30
2022-12-25T00:26:27.152Z,24.47
2022-12-25T00:28:58.673Z,27.20
2022-12-25T00:31:27.012Z,31.37
2022-12-25T00:33:56.666Z,18.07
2022-12-25T00:36:28.513Z,24.27
2022-12-25T00:38:55.633Z,25.03
2022-12-25T00:41:42.930Z,31.70
2022-12-25T00:44:15.987Z,15.60
2022-12-25T00:46:43.600Z,25.97
2022-12-25T00:49:11.935Z,19.70
2022-12-25T00:51:39.411Z,22.50
2022-12-25T00:54:09.265Z,13.10
2022-12-25T00:56:39.968Z,20.00
2022-12-25T00:59:09.930Z,13.07
2022-12-25T01:01:37.711Z,18.27
2022-12-25T01:04:05.483Z,17.13
2022-12-25T01:06:33.131Z,17.43
2022-12-25T01:09:18.838Z,13.80
2022-12-25T01:11:46.374Z,27.63
2022-12-25T01:14:13.619Z,20.40
2022-12-25T01:16:43.083Z,27.00
2022-12-25T01:19:12.673Z,29.17
2022-12-25T01:21:39.902Z,27.43
2022-12-25T01:24:07.564Z,13.70
2022-12-25T01:26:39.115Z,28.60
2022-12-25T01:29:06.179Z,27.03
2022-12-25T01:31:35.685Z,18.73
2022-12-25T01:34:02.622Z,28.50
2022-12-25T01:36:29.892Z,16.37
2022-12-25T01:38:57.126Z,27.80
2022-12-25T01:41:25.295Z,24.67
2022-12-25T01:44:14.370Z,25.13
2022-12-25T01:46:44.596Z,30.37
2022-12-25T01:49:17.719Z,26.47
2022-12-25T01:51:52.912Z,20.10
2022-12-25T01:54:28.339Z,18.90
2022-12-25T01:57:02.785Z,33.40
2022-12-25T01:59:30.645Z,48.53
2022-12-25T02:01:58.618Z,29.07
2022-12-25T02:04:39.613Z,24.03
2022-12-25T02:07:20.160Z,34.80
2022-12-25T02:09:48.884Z,21.80
2022-12-25T02:12:30.666Z,30.20
2022-12-25T02:15:05.844Z,34.73
2022-12-25T02:18:10.530Z,38.00
2022-12-25T02:20:58.055Z,22.67
2022-12-25T02:23:55.372Z,49.90
2022-12-25T02:27:04.285Z,26.17
2022-12-25T02:29:53.419Z,35.97
2022-12-25T02:32:48.017Z,36.27
2022-12-25T02:35:28.849Z,42.80
2022-12-25T02:38:05.907Z,44.97
2022-12-25T02:40:44.088Z,24.40
2022-12-25T02:43:39.909Z,38.50
2022-12-25T02:46:35.446Z,24.80
2022-12-25T02:49:42.574Z,30.93
2022-12-25T02:52:35.056Z,72.47
2022-12-25T02:55:38.385Z,38.17
2022-12-25T02:58:29.160Z,259.80
2022-12-25T03:01:26.337Z,219.10
2022-12-25T03:04:15.760Z,288.17
2022-12-25T03:07:04.817Z,284.23
2022-12-25T03:09:59.161Z,415.73
2022-12-25T03:12:49.721Z,410.50
2022-12-25T03:15:38.043Z,370.50
2022-12-25T03:18:14.525Z,393.17
2022-12-25T03:21:00.336Z,390.67
2022-12-25T03:23:56.458Z,397.13
2022-12-25T03:26:44.162Z,267.93
2022-12-25T03:29:32.136Z,197.77
2022-12-25T03:32:44.020Z,242.53
2022-12-25T03:35:23.237Z,201.03
2022-12-25T03:38:41.989Z,90.40
2022-12-25T03:42:01.419Z,38.13
2022-12-25T03:45:24.537Z,33.03
2022-12-25T03:47:53.730Z,27.57
2022-12-25T03:50:42.475Z,37.53
2022-12-25T03:53:46.495Z,32.80
2022-12-25T03:56:36.284Z,47.80
2022-12-25T03:59:24.473Z,32.33
2022-12-25T04:02:10.622Z,38.50
2022-12-25T04:04:59.058Z,29.83
2022-12-25T04:07:46.698Z,37.20
2022-12-25T04:10:37.226Z,28.70
2022-12-25T04:13:22.712Z,28.23
2022-12-25T04:16:12.637Z,28.17
2022-12-25T04:18:59.067Z,31.63
2022-12-25T04:21:44.894Z,39.87
2022-12-25T04:24:30.757Z,27.00
2022-12-25T04:27:16.551Z,35.03
2022-12-25T04:30:02.337Z,33.03
2022-12-25T04:32:48.341Z,22.87
2022-12-25T04:35:34.443Z,39.17
2022-12-25T04:38:01.846Z,22.60
2022-12-25T04:40:28.845Z,35.70
2022-12-25T04:42:56.093Z,30.90
2022-12-25T04:45:25.591Z,39.00
2022-12-25T04:47:52.589Z,26.10
2022-12-25T04:50:22.258Z,32.43
2022-12-25T04:52:49.245Z,33.80
2022-12-25T04:55:16.567Z,27.53
2022-12-25T04:57:43.550Z,34.77
2022-12-25T05:00:13.951Z,43.20
2022-12-25T05:02:41.023Z,43.70
2022-12-25T05:05:08.759Z,46.63
2022-12-25T05:07:35.885Z,37.50
2022-12-25T05:10:03.466Z,44.00
2022-12-25T05:12:30.580Z,40.17
2022-12-25T05:15:00.012Z,35.77
2022-12-25T05:17:27.247Z,28.90
2022-12-25T05:19:54.274Z,33.50
2022-12-25T05:22:21.286Z,34.20
2022-12-25T05:24:48.137Z,39.50
2022-12-25T05:27:15.973Z,30.70
2022-12-25T05:29:42.987Z,34.07
2022-12-25T05:32:10.136Z,41.83
2022-12-25T05:34:37.155Z,31.20
2022-12-25T05:37:04.211Z,48.77
2022-12-25T05:39:31.410Z,33.83
2022-12-25T05:42:03.079Z,41.40
2022-12-25T05:44:30.069Z,46.50
2022-12-25T05:46:57.119Z,32.20
2022-12-25T05:49:24.382Z,32.10
2022-12-25T05:51:51.473Z,24.23
2022-12-25T05:54:18.521Z,26.47
2022-12-25T05:56:45.465Z,31.93
2022-12-25T05:59:12.647Z,28.70
2022-12-25T06:01:42.796Z,36.10
2022-12-25T06:04:12.721Z,34.10
2022-12-25T06:06:44.674Z,25.53
2022-12-25T06:09:13.519Z,45.03
2022-12-25T06:11:41.173Z,30.73
2022-12-25T06:14:14.382Z,37.90
2022-12-25T06:16:43.748Z,25.23
2022-12-25T06:19:10.754Z,37.50
2022-12-25T06:21:38.083Z,34.43
2022-12-25T06:24:05.390Z,32.63
2022-12-25T06:26:32.766Z,42.43
2022-12-25T06:28:59.939Z,21.53
2022-12-25T06:31:26.911Z,38.20
2022-12-25T06:33:56.124Z,34.17
2022-12-25T06:36:27.725Z,27.13
2022-12-25T06:39:01.166Z,37.33
2022-12-25T06:41:30.884Z,28.33
2022-12-25T06:44:00.572Z,33.47
2022-12-25T06:46:30.696Z,30.13
2022-12-25T06:48:59.278Z,33.40
2022-12-25T06:51:29.522Z,28.40
2022-12-25T06:53:59.812Z,42.70
2022-12-25T06:56:28.617Z,35.63
2022-12-25T06:58:59.171Z,32.33
2022-12-25T07:01:46.343Z,33.23
2022-12-25T07:04:21.706Z,33.47
2022-12-25T07:06:51.245Z,43.00
2022-12-25T07:09:21.828Z,36.17
2022-12-25T07:11:51.729Z,26.40
2022-12-25T07:14:24.504Z,33.50
2022-12-25T07:16:52.089Z,23.73
2022-12-25T07:19:19.470Z,29.97
2022-12-25T07:21:47.231Z,21.93
2022-12-25T07:24:23.174Z,36.47
2022-12-25T07:26:51.575Z,29.77
2022-12-25T07:29:19.958Z,33.60
2022-12-25T07:31:47.756Z,18.90
2022-12-25T07:34:22.555Z,39.63
2022-12-25T07:36:49.978Z,41.90
2022-12-25T07:39:17.005Z,42.63
2022-12-25T07:41:44.731Z,30.17
2022-12-25T07:44:11.726Z,30.43
2022-12-25T07:46:38.736Z,35.93
2022-12-25T07:49:08.395Z,26.90
2022-12-25T07:51:35.557Z,20.03
2022-12-25T07:54:02.613Z,27.13
2022-12-25T07:56:29.721Z,24.77
2022-12-25T07:59:00.037Z,48.37
2022-12-25T08:01:28.284Z,22.77
2022-12-25T08:04:01.060Z,40.23
2022-12-25T08:06:33.792Z,27.40
2022-12-25T08:09:13.907Z,32.10
2022-12-25T08:11:47.902Z,39.30
2022-12-25T08:14:17.455Z,41.67
2022-12-25T08:16:44.635Z,29.50
2022-12-25T08:19:14.460Z,35.23
2022-12-25T08:21:43.449Z,37.60
2022-12-25T08:24:10.875Z,37.07
2022-12-25T08:26:38.497Z,28.83
2022-12-25T08:29:05.392Z,29.37
2022-12-25T08:31:37.255Z,29.47
2022-12-25T08:34:07.016Z,23.43
2022-12-25T08:36:33.997Z,34.27
2022-12-25T08:39:03.317Z,30.27
2022-12-25T08:41:31.284Z,36.50
2022-12-25T08:44:00.985Z,29.70
2022-12-25T08:46:27.830Z,27.77
2022-12-25T08:48:56.668Z,21.30
2022-12-25T08:51:26.566Z,29.73
2022-12-25T08:53:59.145Z,14.63
2022-12-25T08:56:29.200Z,21.27
2022-12-25T08:58:56.033Z,28.80
2022-12-25T09:01:22.931Z,18.97
2022-12-25T09:03:50.014Z,21.70
2022-12-25T09:06:19.214Z,33.33
2022-12-25T09:08:49.855Z,34.83
2022-12-25T09:11:19.051Z,27.00
2022-12-25T09:13:46.487Z,26.57
2022-12-25T09:16:20.499Z,20.87
2022-12-25T09:18:49.973Z,23.33
2022-12-25T09:21:19.946Z,18.67
2022-12-25T09:23:46.908Z,16.37
2022-12-25T09:26:17.042Z,35.60
2022-12-25T09:28:50.581Z,23.27
2022-12-25T09:31:19.166Z,31.20
2022-12-25T09:33:48.977Z,29.40
2022-12-25T09:36:18.164Z,28.77
2022-12-25T09:38:47.126Z,26.13
2022-12-25T09:41:39.760Z,21.53
2022-12-25T09:44:12.075Z,31.13
2022-12-25T09:46:43.196Z,36.80
2022-12-25T09:49:38.299Z,34.33
2022-12-25T09:52:14.851Z,30.73
2022-12-25T09:54:44.574Z,33.67
2022-12-25T09:57:14.153Z,36.33
2022-12-25T09:59:47.566Z,28.93
2022-12-25T10:02:40.569Z,29.60
2022-12-25T10:05:16.457Z,25.60
2022-12-25T10:08:14.550Z,31.73
2022-12-25T10:10:52.849Z,36.30
2022-12-25T10:14:08.575Z,33.33
2022-12-25T10:17:15.455Z,26.70
2022-12-25T10:20:08.541Z,37.00
2022-12-25T10:22:41.004Z,30.10
2022-12-25T10:25:19.891Z,23.20
2022-12-25T10:27:54.416Z,33.50
2022-12-25T10:30:25.378Z,37.10
2022-12-25T10:32:56.871Z,35.93
2022-12-25T10:35:27.545Z,29.73
2022-12-25T10:38:14.314Z,35.30
2022-12-25T10:41:02.648Z,30.37
2022-12-25T10:43:50.510Z,32.63
2022-12-25T10:46:18.718Z,37.80
2022-12-25T10:49:00.995Z,29.20
2022-12-25T10:51:29.633Z,22.20
2022-12-25T10:53:56.963Z,28.27
2022-12-25T10:56:24.095Z,31.13
2022-12-25T10:58:50.981Z,40.20
2022-12-25T11:01:18.314Z,27.70
2022-12-25T11:03:51.439Z,35.33
2022-12-25T11:06:30.928Z,38.07
2022-12-25T11:09:02.619Z,31.93
2022-12-25T11:11:30.489Z,28.03
2022-12-25T11:14:05.012Z,24.00
2022-12-25T11:16:38.449Z,24.20
2022-12-25T11:19:33.097Z,26.90
2022-12-25T11:22:03.920Z,25.00
2022-12-25T11:24:36.045Z,41.27
2022-12-25T11:27:09.133Z,28.60
2022-12-25T11:29:44.955Z,19.23
2022-12-25T11:32:27.220Z,19.97
2022-12-25T11:34:57.239Z,32.13
2022-12-25T11:37:34.935Z,24.70
2022-12-25T11:40:05.694Z,26.70
2022-12-25T11:42:39.586Z,23.33
2022-12-25T11:45:17.376Z,23.77
2022-12-25T11:48:13.146Z,23.57
2022-12-25T11:50:46.977Z,24.50
2022-12-25T11:53:25.625Z,27.40
2022-12-25T11:56:09.009Z,25.40
2022-12-25T11:58:54.790Z,36.73
2022-12-25T12:02:03.429Z,18.73
2022-12-25T12:04:43.231Z,29.20
2022-12-25T12:07:30.170Z,21.20
2022-12-25T12:10:06.049Z,25.63
2022-12-25T12:13:13.177Z,26.03
2022-12-25T12:15:48.134Z,20.07
2022-12-25T12:18:27.318Z,21.40
2022-12-25T12:21:08.112Z,28.67
2022-12-25T12:23:54.863Z,27.43
2022-12-25T12:26:31.514Z,28.97
2022-12-25T12:29:01.264Z,25.40
2022-12-25T12:31:44.619Z,26.37
2022-12-25T12:34:32.594Z,17.27
2022-12-25T12:37:08.154Z,18.27
2022-12-25T12:39:40.664Z,24.07
2022-12-25T12:42:21.072Z,24.53
2022-12-25T12:44:49.854Z,23.87
2022-12-25T12:47:41.715Z,23.63
2022-12-25T12:50:34.332Z,29.33
2022-12-25T12:53:21.508Z,32.37
2022-12-25T12:55:51.483Z,25.73
2022-12-25T12:58:35.627Z,17.63
2022-12-25T13:01:26.839Z,26.33
2022-12-25T13:03:59.135Z,25.03
2022-12-25T13:06:47.853Z,17.63
2022-12-25T13:09:55.331Z,22.60
2022-12-25T13:12:23.029Z,20.97
2022-12-25T13:14:52.593Z,21.33
2022-12-25T13:17:24.994Z,20.90
2022-12-25T13:20:02.479Z,16.30
2022-12-25T13:22:37.005Z,23.53
2022-12-25T13:25:19.537Z,23.67
2022-12-25T13:27:54.120Z,16.53
2022-12-25T13:30:22.396Z,28.60
2022-12-25T13:32:49.389Z,23.47
2022-12-25T13:35:23.422Z,20.53
2022-12-25T13:37:50.747Z,26.70
2022-12-25T13:40:28.456Z,25.00
2022-12-25T13:43:00.307Z,9.47
2022-12-25T13:45:30.884Z,21.80
2022-12-25T13:48:15.046Z,22.10
2022-12-25T13:50:48.284Z,20.00
2022-12-25T13:53:17.818Z,25.57
2022-12-25T13:55:52.512Z,19.17
2022-12-25T13:58:35.005Z,13.63
2022-12-25T14:01:06.001Z,21.03
2022-12-25T14:03:43.997Z,21.73
2022-12-25T14:06:35.757Z,17.67
2022-12-25T14:09:02.728Z,21.00
2022-12-25T14:11:31.221Z,20.13
2022-12-25T14:14:13.991Z,19.77
2022-12-25T14:16:45.091Z,19.37
2022-12-25T14:19:27.652Z,23.13
2022-12-25T14:22:09.251Z,19.27
2022-12-25T14:24:40.454Z,16.57
2022-12-25T14:27:21.592Z,18.77
2022-12-25T14:29:51.797Z,16.83
2022-12-25T14:32:23.062Z,18.83
2022-12-25T14:34:57.137Z,23.37
2022-12-25T14:37:31.070Z,12.90
2022-12-25T14:40:21.859Z,20.50
2022-12-25T14:43:05.447Z,20.30
2022-12-25T14:45:40.966Z,23.60
2022-12-25T14:48:31.105Z,18.40
2022-12-25T14:51:05.004Z,25.10
2022-12-25T14:53:46.857Z,19.40
2022-12-25T14:56:25.916Z,14.37
2022-12-25T14:58:58.987Z,26.00
2022-12-25T15:01:41.657Z,19.90
2022-12-25T15:04:16.718Z,17.10
2022-12-25T15:07:00.441Z,16.17
2022-12-25T15:09:29.885Z,23.13
2022-12-25T15:11:57.169Z,28.17
2022-12-25T15:14:26.389Z,21.53
2022-12-25T15:16:58.142Z,23.50
2022-12-25T15:19:37.242Z,25.60
2022-12-25T15:22:05.208Z,20.43
2022-12-25T15:24:32.163Z,21.33
2022-12-25T15:27:00.616Z,21.50
2022-12-25T15:30:00.280Z,23.47
2022-12-25T15:32:21.592Z,29.63
2022-12-25T15:34:49.853Z,20.53
2022-12-25T15:37:18.914Z,21.23
2022-12-25T15:39:46.513Z,21.53
2022-12-25T15:42:19.540Z,18.93
2022-12-25T15:44:46.620Z,19.13
2022-12-25T15:47:20.267Z,20.03
2022-12-25T15:49:50.285Z,20.23
2022-12-25T15:52:17.985Z,26.47
2022-12-25T15:54:47.899Z,23.87
2022-12-25T15:57:24.310Z,21.13
2022-12-25T15:59:53.508Z,16.90
2022-12-25T16:02:21.280Z,24.03
2022-12-25T16:04:51.213Z,25.80
2022-12-25T16:07:23.067Z,19.67
2022-12-25T16:09:53.065Z,27.40
2022-12-25T16:12:22.438Z,29.63
2022-12-25T16:14:49.284Z,18.00
2022-12-25T16:17:16.506Z,24.07
2022-12-25T16:19:44.848Z,24.23
2022-12-25T16:22:21.925Z,24.37
2022-12-25T16:24:50.038Z,23.60
2022-12-25T16:27:17.129Z,20.20
2022-12-25T16:29:44.449Z,17.10
2022-12-25T16:32:15.591Z,24.33
2022-12-25T16:34:44.588Z,18.30
2022-12-25T16:37:11.510Z,22.47
2022-12-25T16:39:38.388Z,21.47
2022-12-25T16:42:07.426Z,21.43
2022-12-25T16:44:37.466Z,29.87
2022-12-25T16:47:04.645Z,27.50
2022-12-25T16:49:31.704Z,20.93
2022-12-25T16:51:58.716Z,20.77
2022-12-25T16:54:25.771Z,34.77
2022-12-25T16:56:55.244Z,33.23
2022-12-25T16:59:22.212Z,22.80
2022-12-25T17:01:49.579Z,27.03
2022-12-25T17:04:16.733Z,19.53
2022-12-25T17:06:46.083Z,19.20
2022-12-25T17:09:13.070Z,19.00
2022-12-25T17:11:40.335Z,26.63
2022-12-25T17:14:10.369Z,27.43
2022-12-25T17:16:40.442Z,25.17
2022-12-25T17:19:16.835Z,14.97
2022-12-25T17:21:46.814Z,27.03
2022-12-25T17:24:15.126Z,19.40
2022-12-25T17:26:43.886Z,25.03
2022-12-25T17:29:19.975Z,22.00
2022-12-25T17:31:48.955Z,27.77
2022-12-25T17:34:16.037Z,26.93
2022-12-25T17:36:42.960Z,27.47
2022-12-25T17:39:10.840Z,17.83
2022-12-25T17:41:40.448Z,20.80
2022-12-25T17:44:07.492Z,21.57
2022-12-25T17:46:36.795Z,19.53
2022-12-25T17:49:04.090Z,19.20
2022-12-25T17:51:36.066Z,29.10
2022-12-25T17:54:05.990Z,17.80
2022-12-25T17:56:33.749Z,23.20
2022-12-25T17:59:08.098Z,16.17
2022-12-25T18:01:40.996Z,19.70
2022-12-25T18:04:08.122Z,18.57
2022-12-25T18:06:38.812Z,23.03
2022-12-25T18:09:11.023Z,20.30
2022-12-25T18:11:41.075Z,14.53
2022-12-25T18:14:13.681Z,20.20
2022-12-25T18:16:43.757Z,18.23
2022-12-25T18:19:15.662Z,14.47
2022-12-25T18:21:42.884Z,17.50
2022-12-25T18:24:12.373Z,12.63
2022-12-25T18:26:41.718Z,11.27
2022-12-25T18:29:08.848Z,21.27
2022-12-25T18:31:36.571Z,12.30
2022-12-25T18:34:06.085Z,17.00
2022-12-25T18:36:33.041Z,15.03
2022-12-25T18:39:02.400Z,9.37
2022-12-25T18:41:30.351Z,10.17
2022-12-25T18:43:59.658Z,9.63
2022-12-25T18:46:27.923Z,13.27
2022-12-25T18:48:56.737Z,10.97
2022-12-25T18:51:24.390Z,9.57
2022-12-25T18:53:51.777Z,9.70
2022-12-25T18:56:20.973Z,10.27
2022-12-25T18:58:50.333Z,10.67
2022-12-25T19:01:20.877Z,9.10
2022-12-25T19:03:51.578Z,7.07
2022-12-25T19:06:32.582Z,6.90
2022-12-25T19:09:09.354Z,7.47
2022-12-25T19:11:45.653Z,6.80
2022-12-25T19:14:14.239Z,6.83
2022-12-25T19:16:44.486Z,6.50
2022-12-25T19:19:11.897Z,5.47
2022-12-25T19:21:38.952Z,5.60
2022-12-25T19:24:06.217Z,6.50
2022-12-25T19:26:33.449Z,5.87
2022-12-25T19:29:02.435Z,6.60
2022-12-25T19:31:29.413Z,5.97
2022-12-25T19:33:56.560Z,6.13
2022-12-25T19:36:26.081Z,5.93
2022-12-25T19:38:53.591Z,5.77
2022-12-25T19:41:22.620Z,9.43
2022-12-25T19:43:50.040Z,6.80
2022-12-25T19:46:23.080Z,5.20
2022-12-25T19:48:50.400Z,5.70
2022-12-25T19:51:25.770Z,6.37
2022-12-25T19:53:56.230Z,5.47
2022-12-25T19:56:27.762Z,7.10
2022-12-25T19:59:00.660Z,6.47
2022-12-25T20:01:31.758Z,7.30
2022-12-25T20:04:02.233Z,6.50
2022-12-25T20:06:33.739Z,8.80
2022-12-25T20:09:07.811Z,11.43
2022-12-25T20:11:36.967Z,7.50
2022-12-25T20:14:10.697Z,12.03
2022-12-25T20:16:38.992Z,10.07
2022-12-25T20:19:09.829Z,9.03
2022-12-25T20:21:39.175Z,8.23
2022-12-25T20:24:09.169Z,9.53
2022-12-25T20:26:36.215Z,8.30
2022-12-25T20:29:03.967Z,7.77
2022-12-25T20:31:35.808Z,8.47
2022-12-25T20:34:11.501Z,8.10
2022-12-25T20:36:41.039Z,8.73
2022-12-25T20:39:12.787Z,8.40
2022-12-25T20:41:42.617Z,7.30
2022-12-25T20:44:10.246Z,8.40
2022-12-25T20:46:37.867Z,8.20
2022-12-25T20:49:06.861Z,8.13
2022-12-25T20:51:34.138Z,7.70
2022-12-25T20:54:06.353Z,9.13
2022-12-25T20:56:33.639Z,9.10
2022-12-25T20:59:01.153Z,10.23
2022-12-25T21:01:30.680Z,8.63
2022-12-25T21:04:00.218Z,9.00
2022-12-25T21:06:27.283Z,11.10
2022-12-25T21:08:57.178Z,9.70
2022-12-25T21:11:24.114Z,11.67
2022-12-25T21:13:51.173Z,10.33
2022-12-25T21:16:23.241Z,12.27
2022-12-25T21:18:53.156Z,10.90
2022-12-25T21:21:22.846Z,11.20
2022-12-25T21:23:49.994Z,10.40
2022-12-25T21:26:22.722Z,10.97
2022-12-25T21:28:52.991Z,13.13
2022-12-25T21:31:22.467Z,11.27
2022-12-25T21:33:53.441Z,11.63
2022-12-25T21:36:23.545Z,11.63
2022-12-25T21:39:03.851Z,17.37
2022-12-25T21:41:43.527Z,12.07
2022-12-25T21:44:11.333Z,11.80
2022-12-25T21:46:38.267Z,11.00
2022-12-25T21:49:07.455Z,12.73
2022-12-25T21:51:55.682Z,13.47
2022-12-25T21:54:23.538Z,13.40
2022-12-25T21:56:50.837Z,17.27
2022-12-25T21:59:20.879Z,14.67
2022-12-25T22:01:51.914Z,16.60
2022-12-25T22:04:24.176Z,18.27
2022-12-25T22:07:12.911Z,17.17
2022-12-25T22:09:42.023Z,19.80
2022-12-25T22:12:34.004Z,17.83
2022-12-25T22:15:06.275Z,17.40
2022-12-25T22:17:59.385Z,20.73
2022-12-25T22:20:30.763Z,20.03
2022-12-25T22:23:00.412Z,17.87
2022-12-25T22:25:27.643Z,18.30
2022-12-25T22:27:55.064Z,17.53
2022-12-25T22:30:27.156Z,20.10
2022-12-25T22:32:56.962Z,23.70
2022-12-25T22:35:24.512Z,25.50
2022-12-25T22:37:54.232Z,20.50
2022-12-25T22:40:22.879Z,26.43
2022-12-25T22:42:50.691Z,26.80
2022-12-25T22:45:20.112Z,24.60
2022-12-25T22:47:47.085Z,26.17
2022-12-25T22:50:15.046Z,25.97
2022-12-25T22:52:45.712Z,35.90
2022-12-25T22:55:16.241Z,33.20
2022-12-25T22:57:43.065Z,32.77
2022-12-25T23:00:13.476Z,55.70
2022-12-25T23:02:40.624Z,45.33
2022-12-25T23:05:09.906Z,35.77
2022-12-25T23:07:40.390Z,58.33
2022-12-25T23:10:08.501Z,54.13
2022-12-25T23:12:56.337Z,53.73
2022-12-25T23:15:27.532Z,38.13
2022-12-25T23:18:13.655Z,70.97
2022-12-25T23:20:58.890Z,63.70
2022-12-25T23:23:44.590Z,55.33
2022-12-25T23:26:14.537Z,66.93
2022-12-25T23:29:03.359Z,73.43
2022-12-25T23:31:38.089Z,70.00
2022-12-25T23:34:06.864Z,93.60
2022-12-25T23:36:34.444Z,130.67
2022-12-25T23:39:09.972Z,58.13
2022-12-25T23:41:39.741Z,50.37
2022-12-25T23:44:10.555Z,45.97
2022-12-25T23:46:40.401Z,58.13
2022-12-25T23:49:08.888Z,60.20
2022-12-25T23:51:43.053Z,66.37
2022-12-25T23:54:16.326Z,44.00
2022-12-25T23:56:44.402Z,34.80
2022-12-25T23:59:12.396Z,36.93
